createdAt,value
2018-10-07T00:00:27.129Z,6.43
2018-10-07T00:02:55.408Z,6.03
2018-10-07T00:05:23.555Z,6.53
2018-10-07T00:07:51.644Z,6.27
2018-10-07T00:10:20.351Z,6.30
2018-10-07T00:12:48.433Z,6.10
2018-10-07T00:15:16.533Z,5.87
2018-10-07T00:17:44.606Z,6.50
2018-10-07T00:20:12.682Z,6.10
2018-10-07T00:22:40.910Z,6.30
2018-10-07T00:25:09.005Z,6.40
2018-10-07T00:27:37.097Z,6.70
2018-10-07T00:30:05.396Z,6.20
2018-10-07T00:32:33.460Z,6.13
2018-10-07T00:35:01.670Z,6.10
2018-10-07T00:37:29.741Z,6.40
2018-10-07T00:39:57.819Z,6.80
2018-10-07T00:42:25.881Z,6.57
2018-10-07T00:44:53.957Z,6.23
2018-10-07T00:47:22.029Z,6.10
2018-10-07T00:49:50.107Z,6.63
2018-10-07T00:52:18.180Z,6.70
2018-10-07T00:54:46.291Z,6.80
2018-10-07T00:57:14.358Z,6.63
2018-10-07T00:59:42.433Z,11.90
2018-10-07T01:02:10.509Z,9.37
2018-10-07T01:04:38.582Z,9.50
2018-10-07T01:07:06.711Z,10.07
2018-10-07T01:09:34.791Z,11.60
2018-10-07T01:12:02.889Z,11.20
2018-10-07T01:14:30.971Z,9.63
2018-10-07T01:16:59.069Z,7.97
2018-10-07T01:19:27.149Z,7.30
2018-10-07T01:21:55.228Z,6.97
2018-10-07T01:24:23.324Z,7.63
2018-10-07T01:26:51.414Z,6.70
2018-10-07T01:29:19.494Z,7.30
2018-10-07T01:31:47.728Z,7.13
2018-10-07T01:34:15.800Z,6.87
2018-10-07T01:36:43.889Z,6.33
2018-10-07T01:39:12.592Z,7.07
2018-10-07T01:41:40.710Z,6.90
2018-10-07T01:44:08.854Z,7.07
2018-10-07T01:46:37.017Z,7.37
2018-10-07T01:49:05.134Z,7.07
2018-10-07T01:51:33.173Z,6.17
2018-10-07T01:54:01.266Z,6.20
2018-10-07T01:56:29.380Z,6.60
2018-10-07T01:58:57.458Z,6.30
2018-10-07T02:01:25.528Z,6.17
2018-10-07T02:03:53.626Z,5.57
2018-10-07T02:06:21.711Z,6.40
2018-10-07T02:08:49.804Z,6.03
2018-10-07T02:11:17.884Z,5.63
2018-10-07T02:13:45.988Z,6.13
2018-10-07T02:16:14.058Z,6.13
2018-10-07T02:18:42.141Z,5.73
2018-10-07T02:21:10.216Z,6.70
2018-10-07T02:23:38.304Z,6.47
2018-10-07T02:26:06.423Z,6.43
2018-10-07T02:28:34.883Z,6.00
2018-10-07T02:31:02.972Z,6.27
2018-10-07T02:33:31.039Z,6.00
2018-10-07T02:35:59.103Z,6.40
2018-10-07T02:38:27.168Z,6.10
2018-10-07T02:40:55.241Z,5.93
2018-10-07T02:43:23.312Z,6.10
2018-10-07T02:45:51.393Z,6.00
2018-10-07T02:48:19.454Z,5.90
2018-10-07T02:50:47.533Z,6.10
2018-10-07T02:53:15.598Z,6.03
2018-10-07T02:55:43.981Z,6.30
2018-10-07T02:58:12.037Z,6.40
2018-10-07T03:00:40.112Z,6.10
2018-10-07T03:03:08.176Z,6.20
2018-10-07T03:05:36.292Z,6.30
2018-10-07T03:08:04.358Z,6.20
2018-10-07T03:10:32.449Z,6.47
2018-10-07T03:13:00.516Z,6.00
2018-10-07T03:15:28.603Z,6.33
2018-10-07T03:17:56.804Z,5.80
2018-10-07T03:20:24.885Z,6.17
2018-10-07T03:22:53.012Z,5.50
2018-10-07T03:25:21.098Z,6.37
2018-10-07T03:27:49.226Z,6.00
2018-10-07T03:30:17.302Z,6.07
2018-10-07T03:32:45.377Z,6.00
2018-10-07T03:35:13.447Z,6.40
2018-10-07T03:37:41.538Z,6.50
2018-10-07T03:40:09.616Z,6.50
2018-10-07T03:42:37.707Z,6.60
2018-10-07T03:45:05.778Z,6.33
2018-10-07T03:47:33.866Z,6.53
2018-10-07T03:50:01.956Z,6.57
2018-10-07T03:52:30.037Z,7.37
2018-10-07T03:54:58.112Z,7.77
2018-10-07T03:57:26.197Z,8.00
2018-10-07T03:59:54.319Z,7.93
2018-10-07T04:02:22.405Z,7.77
2018-10-07T04:04:50.481Z,7.10
2018-10-07T04:07:18.570Z,7.40
2018-10-07T04:09:46.642Z,7.50
2018-10-07T04:12:14.726Z,7.47
2018-10-07T04:14:42.921Z,7.73
2018-10-07T04:17:10.992Z,9.40
2018-10-07T04:19:39.070Z,7.60
2018-10-07T04:22:07.146Z,7.23
2018-10-07T04:24:35.607Z,7.57
2018-10-07T04:27:03.690Z,11.50
2018-10-07T04:29:31.771Z,16.30
2018-10-07T04:31:59.872Z,11.03
2018-10-07T04:34:27.940Z,7.63
2018-10-07T04:36:56.004Z,7.93
2018-10-07T04:39:24.082Z,9.93
2018-10-07T04:41:52.152Z,10.00
2018-10-07T04:44:20.230Z,9.60
2018-10-07T04:46:48.298Z,31.30
2018-10-07T04:49:16.374Z,19.40
2018-10-07T04:51:44.450Z,10.87
2018-10-07T04:54:12.532Z,10.90
2018-10-07T04:56:40.693Z,11.03
2018-10-07T04:59:08.670Z,9.50
2018-10-07T05:01:36.736Z,8.47
2018-10-07T05:04:04.804Z,6.83
2018-10-07T05:06:35.243Z,8.53
2018-10-07T05:09:06.068Z,12.13
2018-10-07T05:11:34.166Z,11.73
2018-10-07T05:14:02.322Z,16.80
2018-10-07T05:16:33.463Z,13.70
2018-10-07T05:19:01.584Z,13.00
2018-10-07T05:21:29.883Z,12.37
2018-10-07T05:23:58.557Z,11.17
2018-10-07T05:26:26.944Z,12.43
2018-10-07T05:28:55.212Z,13.10
2018-10-07T05:31:23.312Z,31.50
2018-10-07T05:33:51.574Z,20.23
2018-10-07T05:36:19.951Z,10.10
2018-10-07T05:38:48.085Z,38.63
2018-10-07T05:41:16.180Z,34.33
2018-10-07T05:43:44.364Z,16.50
2018-10-07T05:46:12.652Z,13.70
2018-10-07T05:48:40.731Z,12.73
2018-10-07T05:51:08.822Z,12.33
2018-10-07T05:53:36.900Z,11.93
2018-10-07T05:56:05.025Z,12.43
2018-10-07T05:58:33.521Z,12.40
2018-10-07T06:01:08.210Z,14.27
2018-10-07T06:04:05.982Z,10.97
2018-10-07T06:06:34.071Z,10.07
2018-10-07T06:09:02.522Z,12.63
2018-10-07T06:11:30.661Z,11.20
2018-10-07T06:13:58.742Z,9.23
2018-10-07T06:16:26.835Z,9.30
2018-10-07T06:18:54.968Z,9.30
2018-10-07T06:21:23.081Z,8.93
2018-10-07T06:23:51.113Z,7.93
2018-10-07T06:26:19.187Z,7.30
2018-10-07T06:28:47.252Z,7.00
2018-10-07T06:31:15.330Z,6.93
2018-10-07T06:33:43.404Z,6.57
2018-10-07T06:36:11.470Z,7.07
2018-10-07T06:38:39.613Z,7.07
2018-10-07T06:41:07.614Z,7.80
2018-10-07T06:43:35.719Z,8.73
2018-10-07T06:46:03.781Z,7.57
2018-10-07T06:48:31.861Z,13.73
2018-10-07T06:50:59.930Z,10.80
2018-10-07T06:53:28.010Z,12.50
2018-10-07T06:55:56.077Z,9.87
2018-10-07T06:58:24.148Z,9.00
2018-10-07T07:00:52.295Z,9.20
2018-10-07T07:03:20.291Z,8.80
2018-10-07T07:05:48.441Z,8.43
2018-10-07T07:08:16.541Z,10.30
2018-10-07T07:10:44.626Z,9.97
2018-10-07T07:13:12.716Z,9.97
2018-10-07T07:15:40.803Z,10.07
2018-10-07T07:18:08.898Z,9.90
2018-10-07T07:20:36.988Z,8.70
2018-10-07T07:23:05.094Z,7.87
2018-10-07T07:25:33.285Z,8.77
2018-10-07T07:28:01.385Z,7.57
2018-10-07T07:30:29.469Z,7.80
2018-10-07T07:32:57.556Z,6.93
2018-10-07T07:35:25.662Z,6.50
2018-10-07T07:37:53.746Z,6.27
2018-10-07T07:40:21.840Z,6.30
2018-10-07T07:42:49.924Z,5.83
2018-10-07T07:45:18.015Z,5.93
2018-10-07T07:47:46.124Z,5.70
2018-10-07T07:50:14.233Z,5.87
2018-10-07T07:52:42.304Z,6.70
2018-10-07T07:55:10.444Z,6.40
2018-10-07T07:57:38.524Z,6.33
2018-10-07T08:00:06.636Z,6.53
2018-10-07T08:02:34.743Z,6.03
2018-10-07T08:05:02.966Z,7.37
2018-10-07T08:07:31.046Z,7.90
2018-10-07T08:09:59.123Z,7.60
2018-10-07T08:12:27.189Z,8.13
2018-10-07T08:14:55.273Z,7.77
2018-10-07T08:17:23.374Z,7.77
2018-10-07T08:19:51.482Z,8.53
2018-10-07T08:22:19.530Z,7.60
2018-10-07T08:24:47.626Z,8.40
2018-10-07T08:27:15.692Z,8.60
2018-10-07T08:29:43.857Z,7.57
2018-10-07T08:32:11.860Z,7.87
2018-10-07T08:34:39.929Z,9.97
2018-10-07T08:37:08.022Z,8.20
2018-10-07T08:39:36.096Z,8.03
2018-10-07T08:42:04.169Z,8.20
2018-10-07T08:44:32.242Z,7.30
2018-10-07T08:47:00.323Z,6.80
2018-10-07T08:49:28.395Z,8.50
2018-10-07T08:51:56.484Z,8.70
2018-10-07T08:54:24.551Z,8.43
2018-10-07T08:56:52.895Z,7.90
2018-10-07T08:59:20.966Z,8.00
2018-10-07T09:01:49.061Z,8.30
2018-10-07T09:04:17.148Z,7.13
2018-10-07T09:06:45.304Z,7.03
2018-10-07T09:09:13.369Z,8.00
2018-10-07T09:11:41.987Z,8.77
2018-10-07T09:14:10.172Z,8.07
2018-10-07T09:16:38.248Z,8.07
2018-10-07T09:19:06.323Z,8.97
2018-10-07T09:21:34.406Z,7.57
2018-10-07T09:24:02.476Z,7.63
2018-10-07T09:26:30.567Z,7.10
2018-10-07T09:28:58.639Z,6.67
2018-10-07T09:31:26.862Z,9.33
2018-10-07T09:33:54.950Z,8.27
2018-10-07T09:36:23.012Z,7.97
2018-10-07T09:38:51.163Z,9.00
2018-10-07T09:41:19.177Z,9.67
2018-10-07T09:43:47.297Z,9.03
2018-10-07T09:46:15.362Z,7.90
2018-10-07T09:48:43.508Z,6.60
2018-10-07T09:51:11.575Z,7.63
2018-10-07T09:53:39.654Z,7.73
2018-10-07T09:56:07.722Z,7.00
2018-10-07T09:58:35.803Z,7.53
2018-10-07T10:01:03.891Z,7.53
2018-10-07T10:03:31.974Z,7.40
2018-10-07T10:06:00.064Z,10.20
2018-10-07T10:08:28.151Z,9.10
2018-10-07T10:10:56.283Z,7.53
2018-10-07T10:13:24.303Z,6.50
2018-10-07T10:15:52.376Z,6.67
2018-10-07T10:18:25.901Z,6.57
2018-10-07T10:21:35.417Z,5.63
2018-10-07T10:24:10.699Z,5.80
2018-10-07T10:26:46.922Z,6.20
2018-10-07T10:29:19.157Z,6.93
2018-10-07T10:31:59.659Z,6.67
2018-10-07T10:34:53.858Z,6.93
2018-10-07T10:37:32.980Z,8.67
2018-10-07T10:40:02.218Z,8.83
2018-10-07T10:42:51.756Z,8.77
2018-10-07T10:45:47.063Z,8.83
2018-10-07T10:48:18.698Z,8.67
2018-10-07T10:50:57.754Z,9.00
2018-10-07T10:53:43.758Z,8.77
2018-10-07T10:56:23.688Z,7.83
2018-10-07T10:59:12.462Z,8.57
2018-10-07T11:01:53.871Z,7.60
2018-10-07T11:04:23.879Z,8.30
2018-10-07T11:06:59.791Z,8.60
2018-10-07T11:10:15.215Z,7.87
2018-10-07T11:13:24.093Z,8.47
2018-10-07T11:16:01.218Z,8.03
2018-10-07T11:18:59.655Z,9.80
2018-10-07T11:21:35.659Z,8.57
2018-10-07T11:24:11.216Z,8.63
2018-10-07T11:26:55.435Z,8.50
2018-10-07T11:29:52.618Z,8.57
2018-10-07T11:32:50.849Z,8.73
2018-10-07T11:35:23.440Z,9.90
2018-10-07T11:37:59.772Z,9.80
2018-10-07T11:40:39.337Z,8.87
2018-10-07T11:43:15.338Z,8.70
2018-10-07T11:45:48.170Z,8.97
2018-10-07T11:48:25.616Z,8.93
2018-10-07T11:51:00.067Z,8.77
2018-10-07T11:53:30.874Z,9.10
2018-10-07T11:55:58.984Z,10.10
2018-10-07T11:58:27.070Z,10.23
2018-10-07T12:00:55.169Z,10.20
2018-10-07T12:03:23.360Z,9.17
2018-10-07T12:05:51.456Z,8.80
2018-10-07T12:08:19.733Z,8.77
2018-10-07T12:10:47.830Z,8.67
2018-10-07T12:13:15.915Z,10.13
2018-10-07T12:15:44.014Z,9.40
2018-10-07T12:18:12.407Z,9.73
2018-10-07T12:20:40.509Z,9.07
2018-10-07T12:23:08.598Z,9.90
2018-10-07T12:25:36.783Z,9.47
2018-10-07T12:28:04.961Z,11.03
2018-10-07T12:30:33.037Z,9.50
2018-10-07T12:33:01.174Z,8.77
2018-10-07T12:35:29.212Z,8.60
2018-10-07T12:37:57.855Z,8.47
2018-10-07T12:40:25.970Z,8.00
2018-10-07T12:42:54.405Z,7.90
2018-10-07T12:45:22.507Z,8.80
2018-10-07T12:47:50.648Z,8.57
2018-10-07T12:50:18.798Z,10.07
2018-10-07T12:52:47.173Z,8.30
2018-10-07T12:55:15.256Z,8.43
2018-10-07T12:57:43.344Z,12.33
2018-10-07T13:00:11.423Z,7.37
2018-10-07T13:02:39.522Z,7.13
2018-10-07T13:05:07.601Z,7.83
2018-10-07T13:07:35.700Z,7.63
2018-10-07T13:10:03.786Z,7.67
2018-10-07T13:12:31.947Z,7.63
2018-10-07T13:15:00.061Z,8.40
2018-10-07T13:17:28.102Z,7.97
2018-10-07T13:19:56.173Z,8.30
2018-10-07T13:22:24.296Z,9.90
2018-10-07T13:24:52.393Z,9.40
2018-10-07T13:27:20.635Z,9.87
2018-10-07T13:29:48.737Z,9.17
2018-10-07T13:32:17.057Z,10.67
2018-10-07T13:34:45.168Z,10.90
2018-10-07T13:37:13.243Z,10.53
2018-10-07T13:39:41.323Z,10.30
2018-10-07T13:42:09.602Z,10.50
2018-10-07T13:44:37.772Z,10.93
2018-10-07T13:47:06.239Z,10.87
2018-10-07T13:49:34.501Z,10.23
2018-10-07T13:52:02.585Z,10.30
2018-10-07T13:54:30.686Z,10.47
2018-10-07T13:56:58.834Z,10.50
2018-10-07T13:59:26.919Z,10.57
2018-10-07T14:01:54.982Z,9.60
2018-10-07T14:04:23.068Z,10.60
2018-10-07T14:06:51.157Z,10.87
2018-10-07T14:09:19.248Z,10.47
2018-10-07T14:11:47.336Z,11.87
2018-10-07T14:14:15.471Z,10.80
2018-10-07T14:16:43.555Z,10.70
2018-10-07T14:19:11.647Z,10.90
2018-10-07T14:21:39.740Z,11.47
2018-10-07T14:24:07.902Z,10.80
2018-10-07T14:26:35.932Z,11.00
2018-10-07T14:29:04.027Z,10.70
2018-10-07T14:31:32.112Z,11.27
2018-10-07T14:34:00.285Z,11.43
2018-10-07T14:36:28.300Z,12.50
2018-10-07T14:38:56.405Z,14.43
2018-10-07T14:41:24.482Z,13.53
2018-10-07T14:43:52.608Z,12.40
2018-10-07T14:46:20.677Z,13.13
2018-10-07T14:48:48.762Z,12.33
2018-10-07T14:51:16.873Z,15.07
2018-10-07T14:53:45.015Z,12.93
2018-10-07T14:56:13.120Z,16.27
2018-10-07T14:58:41.207Z,21.50
2018-10-07T15:01:09.363Z,14.17
2018-10-07T15:03:37.415Z,15.77
2018-10-07T15:06:05.545Z,17.73
2018-10-07T15:08:33.644Z,16.53
2018-10-07T15:11:01.740Z,15.90
2018-10-07T15:13:30.972Z,17.47
2018-10-07T15:15:59.516Z,14.77
2018-10-07T15:18:27.618Z,14.47
2018-10-07T15:20:55.724Z,17.83
2018-10-07T15:23:23.811Z,17.10
2018-10-07T15:25:52.044Z,17.53
2018-10-07T15:28:20.145Z,17.17
2018-10-07T15:30:48.276Z,17.20
2018-10-07T15:33:16.332Z,17.67
2018-10-07T15:35:44.482Z,18.00
2018-10-07T15:38:12.530Z,17.27
2018-10-07T15:40:40.627Z,17.37
2018-10-07T15:43:08.712Z,17.80
2018-10-07T15:45:36.799Z,17.33
2018-10-07T15:48:04.942Z,16.90
2018-10-07T15:50:33.026Z,15.10
2018-10-07T15:53:01.116Z,16.80
2018-10-07T15:55:29.231Z,17.20
2018-10-07T15:57:57.460Z,16.63
2018-10-07T16:00:25.547Z,16.77
2018-10-07T16:02:53.663Z,18.23
2018-10-07T16:05:21.755Z,17.93
2018-10-07T16:07:49.862Z,18.57
2018-10-07T16:10:17.947Z,18.17
2018-10-07T16:12:46.040Z,15.37
2018-10-07T16:15:14.314Z,18.47
2018-10-07T16:17:42.414Z,16.60
2018-10-07T16:20:10.507Z,18.10
2018-10-07T16:22:38.602Z,16.60
2018-10-07T16:25:06.688Z,16.57
2018-10-07T16:27:34.778Z,15.50
2018-10-07T16:30:02.865Z,15.90
2018-10-07T16:32:30.955Z,16.27
2018-10-07T16:34:59.051Z,14.93
2018-10-07T16:37:27.201Z,15.90
2018-10-07T16:39:55.308Z,16.43
2018-10-07T16:42:23.407Z,18.77
2018-10-07T16:44:51.488Z,17.63
2018-10-07T16:47:19.607Z,16.50
2018-10-07T16:49:47.728Z,15.27
2018-10-07T16:52:15.816Z,14.27
2018-10-07T16:54:43.939Z,14.43
2018-10-07T16:57:12.011Z,13.63
2018-10-07T16:59:40.103Z,13.50
2018-10-07T17:02:08.187Z,12.63
2018-10-07T17:04:36.359Z,12.33
2018-10-07T17:07:04.458Z,12.63
2018-10-07T17:09:32.540Z,13.20
2018-10-07T17:12:00.728Z,12.57
2018-10-07T17:14:28.868Z,12.80
2018-10-07T17:16:56.953Z,12.40
2018-10-07T17:19:25.049Z,11.93
2018-10-07T17:21:53.136Z,12.70
2018-10-07T17:24:21.218Z,13.80
2018-10-07T17:26:49.404Z,13.50
2018-10-07T17:29:17.495Z,11.53
2018-10-07T17:31:46.214Z,11.37
2018-10-07T17:34:14.304Z,12.17
2018-10-07T17:36:42.384Z,10.53
2018-10-07T17:39:11.364Z,11.93
2018-10-07T17:41:40.016Z,11.67
2018-10-07T17:44:08.288Z,12.00
2018-10-07T17:46:36.262Z,12.33
2018-10-07T17:49:04.483Z,12.07
2018-10-07T17:51:32.452Z,13.40
2018-10-07T17:54:00.549Z,12.10
2018-10-07T17:56:28.631Z,13.00
2018-10-07T17:58:56.731Z,13.47
2018-10-07T18:01:24.838Z,12.70
2018-10-07T18:03:52.919Z,11.77
2018-10-07T18:06:21.061Z,11.60
2018-10-07T18:08:49.145Z,12.47
2018-10-07T18:11:17.236Z,11.57
2018-10-07T18:13:45.361Z,12.07
2018-10-07T18:16:13.422Z,11.73
2018-10-07T18:18:41.503Z,11.17
2018-10-07T18:21:10.498Z,10.67
2018-10-07T18:23:38.523Z,11.10
2018-10-07T18:26:06.835Z,10.93
2018-10-07T18:28:34.980Z,11.13
2018-10-07T18:31:03.132Z,10.10
2018-10-07T18:33:31.241Z,10.87
2018-10-07T18:35:59.331Z,10.47
2018-10-07T18:38:27.405Z,9.63
2018-10-07T18:40:55.627Z,9.90
2018-10-07T18:43:23.785Z,10.10
2018-10-07T18:45:51.874Z,10.17
2018-10-07T18:48:20.105Z,9.87
2018-10-07T18:50:48.206Z,10.07
2018-10-07T18:53:16.273Z,9.90
2018-10-07T18:55:44.366Z,9.87
2018-10-07T18:58:12.447Z,10.27
2018-10-07T19:00:40.542Z,9.47
2018-10-07T19:03:08.623Z,9.90
2018-10-07T19:05:36.703Z,9.87
2018-10-07T19:08:04.798Z,9.40
2018-10-07T19:10:32.876Z,10.10
2018-10-07T19:13:01.042Z,9.63
2018-10-07T19:15:29.252Z,9.23
2018-10-07T19:17:57.343Z,9.60
2018-10-07T19:20:25.421Z,9.70
2018-10-07T19:22:53.522Z,10.23
2018-10-07T19:25:21.734Z,10.53
2018-10-07T19:27:49.837Z,10.50
2018-10-07T19:30:17.923Z,11.23
2018-10-07T19:32:46.024Z,11.73
2018-10-07T19:35:14.107Z,11.00
2018-10-07T19:37:42.191Z,10.43
2018-10-07T19:40:10.276Z,11.17
2018-10-07T19:42:38.368Z,12.50
2018-10-07T19:45:06.459Z,12.37
2018-10-07T19:47:34.545Z,12.37
2018-10-07T19:50:02.627Z,11.60
2018-10-07T19:52:30.815Z,11.87
2018-10-07T19:54:58.798Z,11.43
2018-10-07T19:57:26.895Z,10.77
2018-10-07T19:59:54.985Z,10.97
2018-10-07T20:02:23.076Z,10.77
2018-10-07T20:04:51.161Z,10.37
2018-10-07T20:07:19.276Z,11.63
2018-10-07T20:09:47.393Z,12.53
2018-10-07T20:12:15.429Z,12.50
2018-10-07T20:14:44.126Z,12.07
2018-10-07T20:17:12.240Z,11.67
2018-10-07T20:19:40.329Z,11.97
2018-10-07T20:22:12.631Z,13.50
2018-10-07T20:24:40.773Z,13.23
2018-10-07T20:27:08.867Z,12.30
2018-10-07T20:29:36.952Z,13.20
2018-10-07T20:32:05.128Z,13.00
2018-10-07T20:34:33.259Z,12.73
2018-10-07T20:37:01.340Z,12.53
2018-10-07T20:39:29.420Z,12.30
2018-10-07T20:41:57.532Z,11.77
2018-10-07T20:44:25.706Z,12.00
2018-10-07T20:46:53.849Z,11.77
2018-10-07T20:49:21.891Z,11.97
2018-10-07T20:51:53.279Z,12.30
2018-10-07T20:54:18.039Z,12.93
2018-10-07T20:56:46.113Z,12.30
2018-10-07T20:59:14.288Z,13.73
2018-10-07T21:01:42.350Z,12.57
2018-10-07T21:04:10.450Z,13.17
2018-10-07T21:06:38.526Z,12.87
2018-10-07T21:09:09.505Z,16.50
2018-10-07T21:11:37.661Z,16.27
2018-10-07T21:14:05.746Z,13.50
2018-10-07T21:16:33.839Z,13.47
2018-10-07T21:19:01.928Z,13.20
2018-10-07T21:21:30.023Z,13.57
2018-10-07T21:23:58.092Z,14.13
2018-10-07T21:26:26.167Z,15.30
2018-10-07T21:28:54.286Z,15.73
2018-10-07T21:31:22.371Z,11.97
2018-10-07T21:33:50.443Z,12.23
2018-10-07T21:36:18.532Z,12.77
2018-10-07T21:38:46.608Z,13.93
2018-10-07T21:41:14.691Z,13.47
2018-10-07T21:43:42.770Z,12.93
2018-10-07T21:46:11.000Z,13.63
2018-10-07T21:48:39.077Z,12.57
2018-10-07T21:51:07.179Z,12.90
2018-10-07T21:53:35.274Z,12.57
2018-10-07T21:56:03.412Z,12.60
2018-10-07T21:58:31.444Z,13.10
2018-10-07T22:00:59.530Z,12.73
2018-10-07T22:03:27.647Z,13.60
2018-10-07T22:05:55.688Z,17.87
2018-10-07T22:08:23.772Z,15.90
2018-10-07T22:10:51.852Z,16.20
2018-10-07T22:13:19.920Z,14.10
2018-10-07T22:15:47.998Z,13.17
2018-10-07T22:18:16.067Z,13.57
2018-10-07T22:20:44.164Z,12.20
2018-10-07T22:23:12.379Z,12.97
2018-10-07T22:25:40.447Z,12.13
2018-10-07T22:28:08.538Z,11.43
2018-10-07T22:30:36.616Z,12.27
2018-10-07T22:33:04.695Z,13.90
2018-10-07T22:35:32.773Z,14.03
2018-10-07T22:38:00.856Z,12.73
2018-10-07T22:40:29.035Z,12.43
2018-10-07T22:42:57.119Z,12.07
2018-10-07T22:45:25.184Z,14.47
2018-10-07T22:47:53.263Z,12.93
2018-10-07T22:50:21.335Z,12.17
2018-10-07T22:52:49.456Z,12.03
2018-10-07T22:55:17.532Z,10.27
2018-10-07T22:57:45.619Z,13.57
2018-10-07T23:00:13.752Z,10.87
2018-10-07T23:02:41.767Z,8.53
2018-10-07T23:05:09.844Z,13.80
2018-10-07T23:07:37.961Z,10.73
2018-10-07T23:10:06.337Z,11.90
2018-10-07T23:12:34.424Z,10.87
2018-10-07T23:15:02.505Z,9.23
2018-10-07T23:17:30.600Z,9.30
2018-10-07T23:19:58.675Z,11.20
2018-10-07T23:22:26.752Z,11.60
2018-10-07T23:24:54.832Z,8.40
2018-10-07T23:27:22.898Z,7.67
2018-10-07T23:29:50.986Z,8.33
2018-10-07T23:32:19.055Z,7.60
2018-10-07T23:34:47.130Z,7.87
2018-10-07T23:37:15.253Z,9.87
2018-10-07T23:39:43.280Z,8.67
2018-10-07T23:42:11.350Z,8.10
2018-10-07T23:44:39.437Z,7.90
2018-10-07T23:47:07.503Z,8.30
2018-10-07T23:49:35.600Z,7.43
2018-10-07T23:52:03.728Z,6.27
2018-10-07T23:54:31.778Z,5.30
2018-10-07T23:56:59.891Z,5.80
2018-10-07T23:59:27.981Z,6.57
